Terminal Aerodrome Forecast
Issued by NWS Sterling, VA

Home | Current Version | Previous Version | Text Only | Print | Product List | Glossary On
Versions: 1 2 3 4 5 6 7 8 9 10 11 12 13 14 15 16 17 18 19 20 21 22
596
FTUS41 KLWX 100520
TAFBWI
TAF
KBWI 100520Z 1006/1112 29013G20KT P6SM VCSH OVC045
     FM100900 29009G16KT P6SM BKN060
     FM101900 28014G22KT P6SM BKN040
     FM102200 28012KT P6SM SCT060
     FM110400 28014G21KT P6SM SCT250=

USA.gov is the U.S. government's official web portal to all federal, state and local government web resources and services.